sensor_id;sensor_type;location;lat;lon;timestamp;temperature;humidity
26254;DHT22;53339;51.378;0.094;2022-09-29T00:01:06;6.70;78.90
26254;DHT22;53339;51.378;0.094;2022-09-29T00:03:35;6.70;78.90
26254;DHT22;53339;51.378;0.094;2022-09-29T00:06:03;6.70;78.90
26254;DHT22;53339;51.378;0.094;2022-09-29T00:08:30;6.70;78.90
26254;DHT22;53339;51.378;0.094;2022-09-29T00:10:57;6.60;78.90
26254;DHT22;53339;51.378;0.094;2022-09-29T00:13:25;6.60;79.00
26254;DHT22;53339;51.378;0.094;2022-09-29T00:16:00;6.60;79.00
26254;DHT22;53339;51.378;0.094;2022-09-29T00:18:29;6.60;79.10
26254;DHT22;53339;51.378;0.094;2022-09-29T00:21:08;6.50;79.10
26254;DHT22;53339;51.378;0.094;2022-09-29T00:23:37;6.50;79.20
26254;DHT22;53339;51.378;0.094;2022-09-29T00:28:37;6.40;79.30
26254;DHT22;53339;51.378;0.094;2022-09-29T00:31:06;6.40;79.40
26254;DHT22;53339;51.378;0.094;2022-09-29T00:33:35;6.40;79.40
26254;DHT22;53339;51.378;0.094;2022-09-29T00:36:09;6.30;79.50
26254;DHT22;53339;51.378;0.094;2022-09-29T00:38:37;6.30;79.50
26254;DHT22;53339;51.378;0.094;2022-09-29T00:41:05;6.30;79.60
26254;DHT22;53339;51.378;0.094;2022-09-29T00:49:39;6.30;79.60
26254;DHT22;53339;51.378;0.094;2022-09-29T00:52:33;6.30;79.60
26254;DHT22;53339;51.378;0.094;2022-09-29T00:55:17;6.30;79.50
26254;DHT22;53339;51.378;0.094;2022-09-29T00:58:01;6.30;79.50
26254;DHT22;53339;51.378;0.094;2022-09-29T01:00:29;6.20;79.50
26254;DHT22;53339;51.378;0.094;2022-09-29T01:03:09;6.20;79.50
26254;DHT22;53339;51.378;0.094;2022-09-29T01:05:43;6.20;79.50
26254;DHT22;53339;51.378;0.094;2022-09-29T01:08:33;6.20;79.50
26254;DHT22;53339;51.378;0.094;2022-09-29T01:11:02;6.20;79.50
26254;DHT22;53339;51.378;0.094;2022-09-29T01:13:32;6.10;79.60
26254;DHT22;53339;51.378;0.094;2022-09-29T01:16:00;6.10;79.60
26254;DHT22;53339;51.378;0.094;2022-09-29T01:18:28;6.10;79.60
26254;DHT22;53339;51.378;0.094;2022-09-29T01:27:27;6.00;79.60
26254;DHT22;53339;51.378;0.094;2022-09-29T01:35:25;5.90;79.70
26254;DHT22;53339;51.378;0.094;2022-09-29T01:43:45;5.90;79.90
26254;DHT22;53339;51.378;0.094;2022-09-29T01:46:17;5.90;79.90
26254;DHT22;53339;51.378;0.094;2022-09-29T01:48:50;5.90;79.90
26254;DHT22;53339;51.378;0.094;2022-09-29T01:51:23;5.90;79.80
26254;DHT22;53339;51.378;0.094;2022-09-29T01:53:54;5.90;79.80
26254;DHT22;53339;51.378;0.094;2022-09-29T01:56:30;5.80;79.90
26254;DHT22;53339;51.378;0.094;2022-09-29T01:59:14;5.80;79.90
26254;DHT22;53339;51.378;0.094;2022-09-29T02:01:46;5.70;80.00
26254;DHT22;53339;51.378;0.094;2022-09-29T02:04:29;5.70;80.10
26254;DHT22;53339;51.378;0.094;2022-09-29T02:07:05;5.70;80.20
26254;DHT22;53339;51.378;0.094;2022-09-29T02:09:38;5.70;80.30
26254;DHT22;53339;51.378;0.094;2022-09-29T02:12:12;5.70;80.30
26254;DHT22;53339;51.378;0.094;2022-09-29T02:14:45;5.70;80.40
26254;DHT22;53339;51.378;0.094;2022-09-29T02:17:30;5.70;80.40
26254;DHT22;53339;51.378;0.094;2022-09-29T02:19:59;5.70;80.30
26254;DHT22;53339;51.378;0.094;2022-09-29T02:22:27;5.70;80.20
26254;DHT22;53339;51.378;0.094;2022-09-29T02:24:56;5.70;80.30
26254;DHT22;53339;51.378;0.094;2022-09-29T02:27:26;5.70;80.30
26254;DHT22;53339;51.378;0.094;2022-09-29T02:29:56;5.70;80.40
26254;DHT22;53339;51.378;0.094;2022-09-29T02:32:25;5.60;80.40
26254;DHT22;53339;51.378;0.094;2022-09-29T02:34:53;5.60;80.50
26254;DHT22;53339;51.378;0.094;2022-09-29T02:55:12;5.60;80.50
26254;DHT22;53339;51.378;0.094;2022-09-29T02:57:48;5.60;80.40
26254;DHT22;53339;51.378;0.094;2022-09-29T03:00:18;5.60;80.50
26254;DHT22;53339;51.378;0.094;2022-09-29T03:02:46;5.60;80.50
26254;DHT22;53339;51.378;0.094;2022-09-29T03:05:17;5.50;80.50
26254;DHT22;53339;51.378;0.094;2022-09-29T03:07:44;5.50;80.50
26254;DHT22;53339;51.378;0.094;2022-09-29T03:10:14;5.50;80.60
26254;DHT22;53339;51.378;0.094;2022-09-29T03:12:42;5.50;80.60
26254;DHT22;53339;51.378;0.094;2022-09-29T03:15:10;5.50;80.70
26254;DHT22;53339;51.378;0.094;2022-09-29T03:17:40;5.40;80.70
26254;DHT22;53339;51.378;0.094;2022-09-29T03:20:08;5.50;80.60
26254;DHT22;53339;51.378;0.094;2022-09-29T03:22:37;5.40;80.60
26254;DHT22;53339;51.378;0.094;2022-09-29T03:25:04;5.40;80.70
26254;DHT22;53339;51.378;0.094;2022-09-29T03:27:33;5.40;80.70
26254;DHT22;53339;51.378;0.094;2022-09-29T03:30:03;5.40;80.80
26254;DHT22;53339;51.378;0.094;2022-09-29T03:32:31;5.40;80.90
26254;DHT22;53339;51.378;0.094;2022-09-29T03:34:58;5.40;80.90
26254;DHT22;53339;51.378;0.094;2022-09-29T03:37:26;5.40;80.80
26254;DHT22;53339;51.378;0.094;2022-09-29T03:39:53;5.40;80.80
26254;DHT22;53339;51.378;0.094;2022-09-29T03:42:21;5.40;80.80
26254;DHT22;53339;51.378;0.094;2022-09-29T03:44:50;5.40;80.80
26254;DHT22;53339;51.378;0.094;2022-09-29T03:47:17;5.40;80.80
26254;DHT22;53339;51.378;0.094;2022-09-29T03:49:45;5.30;80.80
26254;DHT22;53339;51.378;0.094;2022-09-29T03:52:12;5.30;80.90
26254;DHT22;53339;51.378;0.094;2022-09-29T03:54:40;5.30;80.80
26254;DHT22;53339;51.378;0.094;2022-09-29T03:57:07;5.30;80.80
26254;DHT22;53339;51.378;0.094;2022-09-29T03:59:35;5.20;80.80
26254;DHT22;53339;51.378;0.094;2022-09-29T04:02:02;5.20;80.80
26254;DHT22;53339;51.378;0.094;2022-09-29T04:04:30;5.20;80.90
26254;DHT22;53339;51.378;0.094;2022-09-29T04:06:58;5.20;80.90
26254;DHT22;53339;51.378;0.094;2022-09-29T04:09:25;5.10;81.00
26254;DHT22;53339;51.378;0.094;2022-09-29T04:11:53;5.10;81.00
26254;DHT22;53339;51.378;0.094;2022-09-29T04:14:20;5.10;81.00
26254;DHT22;53339;51.378;0.094;2022-09-29T04:16:47;5.10;81.00
26254;DHT22;53339;51.378;0.094;2022-09-29T04:19:15;5.10;81.10
26254;DHT22;53339;51.378;0.094;2022-09-29T04:21:42;5.10;81.10
26254;DHT22;53339;51.378;0.094;2022-09-29T04:24:10;5.10;81.10
26254;DHT22;53339;51.378;0.094;2022-09-29T04:26:37;5.10;81.10
26254;DHT22;53339;51.378;0.094;2022-09-29T04:29:06;5.10;81.10
26254;DHT22;53339;51.378;0.094;2022-09-29T04:31:34;5.10;81.10
26254;DHT22;53339;51.378;0.094;2022-09-29T04:34:01;5.10;81.10
26254;DHT22;53339;51.378;0.094;2022-09-29T04:36:29;5.10;81.00
26254;DHT22;53339;51.378;0.094;2022-09-29T04:38:56;5.10;81.00
26254;DHT22;53339;51.378;0.094;2022-09-29T04:41:24;5.10;81.00
26254;DHT22;53339;51.378;0.094;2022-09-29T04:43:51;5.00;81.10
26254;DHT22;53339;51.378;0.094;2022-09-29T04:46:18;5.00;81.20
26254;DHT22;53339;51.378;0.094;2022-09-29T04:48:46;5.10;81.20
26254;DHT22;53339;51.378;0.094;2022-09-29T04:51:13;5.10;81.40
26254;DHT22;53339;51.378;0.094;2022-09-29T04:53:41;5.20;81.50
26254;DHT22;53339;51.378;0.094;2022-09-29T04:56:08;5.20;81.50
26254;DHT22;53339;51.378;0.094;2022-09-29T04:58:36;5.30;81.50
26254;DHT22;53339;51.378;0.094;2022-09-29T05:01:05;5.30;81.60
26254;DHT22;53339;51.378;0.094;2022-09-29T05:03:33;5.40;81.60
26254;DHT22;53339;51.378;0.094;2022-09-29T05:06:01;5.40;81.60
26254;DHT22;53339;51.378;0.094;2022-09-29T05:08:28;5.50;81.60
26254;DHT22;53339;51.378;0.094;2022-09-29T05:10:55;5.60;81.50
26254;DHT22;53339;51.378;0.094;2022-09-29T05:13:23;5.60;81.50
26254;DHT22;53339;51.378;0.094;2022-09-29T05:15:55;5.70;81.50
26254;DHT22;53339;51.378;0.094;2022-09-29T05:18:23;5.70;81.50
26254;DHT22;53339;51.378;0.094;2022-09-29T05:20:51;5.70;81.40
26254;DHT22;53339;51.378;0.094;2022-09-29T05:23:39;5.80;81.40
26254;DHT22;53339;51.378;0.094;2022-09-29T05:26:09;5.80;81.40
26254;DHT22;53339;51.378;0.094;2022-09-29T05:28:41;5.80;81.40
26254;DHT22;53339;51.378;0.094;2022-09-29T05:31:09;5.80;81.50
26254;DHT22;53339;51.378;0.094;2022-09-29T05:33:37;5.80;81.50
26254;DHT22;53339;51.378;0.094;2022-09-29T05:36:10;5.90;81.50
26254;DHT22;53339;51.378;0.094;2022-09-29T05:38:38;5.90;81.60
26254;DHT22;53339;51.378;0.094;2022-09-29T05:41:08;5.90;81.60
26254;DHT22;53339;51.378;0.094;2022-09-29T05:43:37;5.90;81.60
26254;DHT22;53339;51.378;0.094;2022-09-29T05:46:07;5.90;81.70
26254;DHT22;53339;51.378;0.094;2022-09-29T05:48:36;6.00;81.70
26254;DHT22;53339;51.378;0.094;2022-09-29T05:51:12;6.00;81.70
26254;DHT22;53339;51.378;0.094;2022-09-29T05:53:40;6.00;81.80
26254;DHT22;53339;51.378;0.094;2022-09-29T05:56:12;6.10;81.80
26254;DHT22;53339;51.378;0.094;2022-09-29T05:58:41;6.10;81.80
26254;DHT22;53339;51.378;0.094;2022-09-29T06:01:12;6.10;81.80
26254;DHT22;53339;51.378;0.094;2022-09-29T06:03:40;6.20;81.80
26254;DHT22;53339;51.378;0.094;2022-09-29T06:06:20;6.20;81.80
26254;DHT22;53339;51.378;0.094;2022-09-29T06:08:48;6.20;81.90
26254;DHT22;53339;51.378;0.094;2022-09-29T06:11:21;6.30;81.90
26254;DHT22;53339;51.378;0.094;2022-09-29T06:13:51;6.30;81.80
26254;DHT22;53339;51.378;0.094;2022-09-29T06:16:25;6.40;81.80
26254;DHT22;53339;51.378;0.094;2022-09-29T06:18:53;6.40;81.90
26254;DHT22;53339;51.378;0.094;2022-09-29T06:21:22;6.40;82.00
26254;DHT22;53339;51.378;0.094;2022-09-29T06:23:52;6.50;82.00
26254;DHT22;53339;51.378;0.094;2022-09-29T06:26:20;6.60;82.10
26254;DHT22;53339;51.378;0.094;2022-09-29T06:28:52;6.60;82.10
26254;DHT22;53339;51.378;0.094;2022-09-29T06:31:22;6.60;82.10
26254;DHT22;53339;51.378;0.094;2022-09-29T06:33:50;6.70;82.20
26254;DHT22;53339;51.378;0.094;2022-09-29T06:36:20;6.80;82.20
26254;DHT22;53339;51.378;0.094;2022-09-29T06:39:10;6.90;82.20
26254;DHT22;53339;51.378;0.094;2022-09-29T06:41:38;7.00;82.20
26254;DHT22;53339;51.378;0.094;2022-09-29T06:44:08;7.10;82.10
26254;DHT22;53339;51.378;0.094;2022-09-29T06:46:35;7.20;82.00
26254;DHT22;53339;51.378;0.094;2022-09-29T06:49:02;7.20;81.90
26254;DHT22;53339;51.378;0.094;2022-09-29T06:51:30;7.30;81.90
26254;DHT22;53339;51.378;0.094;2022-09-29T06:54:11;7.40;81.90
26254;DHT22;53339;51.378;0.094;2022-09-29T06:56:39;7.50;81.90
26254;DHT22;53339;51.378;0.094;2022-09-29T06:59:07;7.50;81.90
26254;DHT22;53339;51.378;0.094;2022-09-29T07:01:34;7.60;82.00
26254;DHT22;53339;51.378;0.094;2022-09-29T07:04:02;7.70;82.00
26254;DHT22;53339;51.378;0.094;2022-09-29T07:06:30;7.70;82.00
26254;DHT22;53339;51.378;0.094;2022-09-29T07:08:58;7.90;82.00
26254;DHT22;53339;51.378;0.094;2022-09-29T07:11:26;7.90;81.90
26254;DHT22;53339;51.378;0.094;2022-09-29T07:13:54;8.00;81.90
26254;DHT22;53339;51.378;0.094;2022-09-29T07:16:22;8.00;81.80
26254;DHT22;53339;51.378;0.094;2022-09-29T07:18:50;8.10;81.80
26254;DHT22;53339;51.378;0.094;2022-09-29T07:21:19;8.10;81.80
26254;DHT22;53339;51.378;0.094;2022-09-29T07:23:48;8.10;81.80
26254;DHT22;53339;51.378;0.094;2022-09-29T07:26:16;8.20;81.90
26254;DHT22;53339;51.378;0.094;2022-09-29T07:28:45;8.30;82.00
26254;DHT22;53339;51.378;0.094;2022-09-29T07:31:16;8.40;82.10
26254;DHT22;53339;51.378;0.094;2022-09-29T07:33:45;8.50;82.20
26254;DHT22;53339;51.378;0.094;2022-09-29T07:36:15;8.70;82.20
26254;DHT22;53339;51.378;0.094;2022-09-29T07:38:47;8.90;82.20
26254;DHT22;53339;51.378;0.094;2022-09-29T07:41:16;9.10;82.00
26254;DHT22;53339;51.378;0.094;2022-09-29T07:43:44;9.30;81.70
26254;DHT22;53339;51.378;0.094;2022-09-29T07:46:11;9.40;81.60
26254;DHT22;53339;51.378;0.094;2022-09-29T07:48:39;9.70;81.60
26254;DHT22;53339;51.378;0.094;2022-09-29T07:51:15;9.80;81.40
26254;DHT22;53339;51.378;0.094;2022-09-29T07:53:43;10.00;81.10
26254;DHT22;53339;51.378;0.094;2022-09-29T07:56:20;10.10;80.90
26254;DHT22;53339;51.378;0.094;2022-09-29T07:58:49;10.20;80.70
26254;DHT22;53339;51.378;0.094;2022-09-29T08:01:18;10.30;80.60
26254;DHT22;53339;51.378;0.094;2022-09-29T08:03:51;10.40;80.40
26254;DHT22;53339;51.378;0.094;2022-09-29T08:06:21;10.40;80.30
26254;DHT22;53339;51.378;0.094;2022-09-29T08:08:49;10.40;80.10
26254;DHT22;53339;51.378;0.094;2022-09-29T08:11:29;10.40;80.00
26254;DHT22;53339;51.378;0.094;2022-09-29T08:13:59;10.30;79.90
26254;DHT22;53339;51.378;0.094;2022-09-29T08:16:27;10.20;79.80
26254;DHT22;53339;51.378;0.094;2022-09-29T08:18:54;10.20;79.90
26254;DHT22;53339;51.378;0.094;2022-09-29T08:21:21;10.10;79.80
26254;DHT22;53339;51.378;0.094;2022-09-29T08:23:49;10.10;79.80
26254;DHT22;53339;51.378;0.094;2022-09-29T08:26:19;10.10;79.80
26254;DHT22;53339;51.378;0.094;2022-09-29T08:29:00;10.10;80.00
26254;DHT22;53339;51.378;0.094;2022-09-29T08:31:34;10.10;80.00
26254;DHT22;53339;51.378;0.094;2022-09-29T08:34:04;10.10;79.90
26254;DHT22;53339;51.378;0.094;2022-09-29T08:36:31;10.00;79.90
26254;DHT22;53339;51.378;0.094;2022-09-29T08:38:59;10.00;80.00
26254;DHT22;53339;51.378;0.094;2022-09-29T08:41:50;10.10;80.10
26254;DHT22;53339;51.378;0.094;2022-09-29T08:47:10;10.10;80.20
26254;DHT22;53339;51.378;0.094;2022-09-29T08:49:45;10.20;80.10
26254;DHT22;53339;51.378;0.094;2022-09-29T08:52:21;10.20;80.10
26254;DHT22;53339;51.378;0.094;2022-09-29T08:54:54;10.30;80.10
26254;DHT22;53339;51.378;0.094;2022-09-29T08:57:23;10.40;80.10
26254;DHT22;53339;51.378;0.094;2022-09-29T08:59:54;10.40;80.10
26254;DHT22;53339;51.378;0.094;2022-09-29T09:14:14;10.80;79.80
26254;DHT22;53339;51.378;0.094;2022-09-29T09:20:11;10.90;79.70
26254;DHT22;53339;51.378;0.094;2022-09-29T09:25:17;11.10;79.70
26254;DHT22;53339;51.378;0.094;2022-09-29T09:27:51;11.20;79.60
26254;DHT22;53339;51.378;0.094;2022-09-29T09:30:19;11.30;79.40
26254;DHT22;53339;51.378;0.094;2022-09-29T09:33:00;11.30;79.40
26254;DHT22;53339;51.378;0.094;2022-09-29T09:35:39;11.40;79.30
26254;DHT22;53339;51.378;0.094;2022-09-29T09:38:24;11.60;79.30
26254;DHT22;53339;51.378;0.094;2022-09-29T09:40:56;11.60;79.20
26254;DHT22;53339;51.378;0.094;2022-09-29T09:43:41;11.70;78.90
26254;DHT22;53339;51.378;0.094;2022-09-29T09:46:18;11.80;78.80
26254;DHT22;53339;51.378;0.094;2022-09-29T09:49:00;11.80;78.60
26254;DHT22;53339;51.378;0.094;2022-09-29T09:51:42;11.90;78.50
26254;DHT22;53339;51.378;0.094;2022-09-29T09:54:42;12.00;78.40
26254;DHT22;53339;51.378;0.094;2022-09-29T10:00:15;12.10;78.00
26254;DHT22;53339;51.378;0.094;2022-09-29T10:02:52;12.20;77.80
26254;DHT22;53339;51.378;0.094;2022-09-29T10:05:28;12.20;77.70
26254;DHT22;53339;51.378;0.094;2022-09-29T10:07:57;12.30;77.70
26254;DHT22;53339;51.378;0.094;2022-09-29T10:10:27;12.40;77.70
26254;DHT22;53339;51.378;0.094;2022-09-29T10:13:19;12.60;77.70
26254;DHT22;53339;51.378;0.094;2022-09-29T10:16:00;12.70;77.50
26254;DHT22;53339;51.378;0.094;2022-09-29T10:18:47;12.80;77.30
26254;DHT22;53339;51.378;0.094;2022-09-29T10:21:21;12.90;77.20
26254;DHT22;53339;51.378;0.094;2022-09-29T10:23:56;13.10;77.10
26254;DHT22;53339;51.378;0.094;2022-09-29T10:29:38;13.40;77.00
26254;DHT22;53339;51.378;0.094;2022-09-29T10:32:16;13.60;75.90
26254;DHT22;53339;51.378;0.094;2022-09-29T10:34:51;13.60;75.10
26254;DHT22;53339;51.378;0.094;2022-09-29T10:37:33;13.60;74.70
26254;DHT22;53339;51.378;0.094;2022-09-29T10:42:49;13.70;74.90
26254;DHT22;53339;51.378;0.094;2022-09-29T10:45:22;13.70;75.00
26254;DHT22;53339;51.378;0.094;2022-09-29T10:50:27;14.00;74.80
26254;DHT22;53339;51.378;0.094;2022-09-29T10:53:00;14.30;74.70
26254;DHT22;53339;51.378;0.094;2022-09-29T10:55:34;14.50;74.30
26254;DHT22;53339;51.378;0.094;2022-09-29T10:58:15;14.70;73.80
26254;DHT22;53339;51.378;0.094;2022-09-29T11:01:11;14.80;72.80
26254;DHT22;53339;51.378;0.094;2022-09-29T11:03:49;14.90;71.20
26254;DHT22;53339;51.378;0.094;2022-09-29T11:06:26;14.80;70.90
26254;DHT22;53339;51.378;0.094;2022-09-29T11:08:55;14.70;71.40
26254;DHT22;53339;51.378;0.094;2022-09-29T11:11:27;14.60;71.30
26254;DHT22;53339;51.378;0.094;2022-09-29T11:13:55;14.50;71.30
26254;DHT22;53339;51.378;0.094;2022-09-29T11:16:27;14.40;71.70
26254;DHT22;53339;51.378;0.094;2022-09-29T11:19:07;14.30;71.50
26254;DHT22;53339;51.378;0.094;2022-09-29T11:21:46;14.20;72.00
26254;DHT22;53339;51.378;0.094;2022-09-29T11:30:21;14.40;72.20
26254;DHT22;53339;51.378;0.094;2022-09-29T11:36:34;14.40;71.50
26254;DHT22;53339;51.378;0.094;2022-09-29T11:39:27;14.40;71.80
26254;DHT22;53339;51.378;0.094;2022-09-29T11:42:16;14.40;71.30
26254;DHT22;53339;51.378;0.094;2022-09-29T11:44:58;14.50;71.40
26254;DHT22;53339;51.378;0.094;2022-09-29T11:50:16;14.70;69.90
26254;DHT22;53339;51.378;0.094;2022-09-29T11:58:43;15.10;70.50
26254;DHT22;53339;51.378;0.094;2022-09-29T12:04:14;15.60;69.30
26254;DHT22;53339;51.378;0.094;2022-09-29T12:10:24;15.90;68.60
26254;DHT22;53339;51.378;0.094;2022-09-29T12:12:34;16.10;68.20
26254;DHT22;53339;51.378;0.094;2022-09-29T12:15:18;16.00;67.80
26254;DHT22;53339;51.378;0.094;2022-09-29T12:17:55;15.90;67.90
26254;DHT22;53339;51.378;0.094;2022-09-29T12:20:32;15.70;68.00
26254;DHT22;53339;51.378;0.094;2022-09-29T12:23:03;15.50;68.30
26254;DHT22;53339;51.378;0.094;2022-09-29T12:25:38;15.30;68.50
26254;DHT22;53339;51.378;0.094;2022-09-29T12:28:18;15.10;68.60
26254;DHT22;53339;51.378;0.094;2022-09-29T12:30:49;14.90;68.50
26254;DHT22;53339;51.378;0.094;2022-09-29T12:33:28;14.90;68.80
26254;DHT22;53339;51.378;0.094;2022-09-29T12:42:02;15.20;69.00
26254;DHT22;53339;51.378;0.094;2022-09-29T12:44:40;15.40;68.80
26254;DHT22;53339;51.378;0.094;2022-09-29T12:47:25;15.50;68.20
26254;DHT22;53339;51.378;0.094;2022-09-29T12:52:39;15.60;68.20
26254;DHT22;53339;51.378;0.094;2022-09-29T12:55:16;15.70;68.30
26254;DHT22;53339;51.378;0.094;2022-09-29T12:57:47;15.70;68.30
26254;DHT22;53339;51.378;0.094;2022-09-29T13:00:15;15.90;67.80
26254;DHT22;53339;51.378;0.094;2022-09-29T13:06:32;16.10;66.80
26254;DHT22;53339;51.378;0.094;2022-09-29T13:09:18;16.20;66.00
26254;DHT22;53339;51.378;0.094;2022-09-29T13:29:30;17.20;63.00
26254;DHT22;53339;51.378;0.094;2022-09-29T13:32:01;17.20;63.10
26254;DHT22;53339;51.378;0.094;2022-09-29T13:34:34;17.00;62.40
26254;DHT22;53339;51.378;0.094;2022-09-29T13:37:15;16.70;62.20
26254;DHT22;53339;51.378;0.094;2022-09-29T13:42:44;16.20;62.70
26254;DHT22;53339;51.378;0.094;2022-09-29T13:47:49;15.60;63.30
26254;DHT22;53339;51.378;0.094;2022-09-29T13:50:45;15.40;63.60
26254;DHT22;53339;51.378;0.094;2022-09-29T13:58:52;15.70;64.10
26254;DHT22;53339;51.378;0.094;2022-09-29T14:01:34;16.10;64.10
26254;DHT22;53339;51.378;0.094;2022-09-29T14:04:49;16.70;63.40
26254;DHT22;53339;51.378;0.094;2022-09-29T14:07:37;17.40;61.90
26254;DHT22;53339;51.378;0.094;2022-09-29T14:10:13;18.50;59.80
26254;DHT22;53339;51.378;0.094;2022-09-29T14:12:45;19.70;57.80
26254;DHT22;53339;51.378;0.094;2022-09-29T14:15:17;20.90;56.50
26254;DHT22;53339;51.378;0.094;2022-09-29T14:17:54;21.80;54.20
26254;DHT22;53339;51.378;0.094;2022-09-29T14:20:31;22.10;53.60
26254;DHT22;53339;51.378;0.094;2022-09-29T14:25:52;21.10;54.50
26254;DHT22;53339;51.378;0.094;2022-09-29T14:28:24;20.30;54.80
26254;DHT22;53339;51.378;0.094;2022-09-29T14:30:58;19.30;55.80
26254;DHT22;53339;51.378;0.094;2022-09-29T14:33:40;18.60;56.70
26254;DHT22;53339;51.378;0.094;2022-09-29T14:36:17;17.90;57.50
26254;DHT22;53339;51.378;0.094;2022-09-29T14:38:49;17.40;58.20
26254;DHT22;53339;51.378;0.094;2022-09-29T14:41:43;17.10;58.90
26254;DHT22;53339;51.378;0.094;2022-09-29T14:44:29;16.80;59.40
26254;DHT22;53339;51.378;0.094;2022-09-29T14:47:36;16.60;59.90
26254;DHT22;53339;51.378;0.094;2022-09-29T14:53:43;19.30;56.40
26254;DHT22;53339;51.378;0.094;2022-09-29T14:59:29;23.50;51.60
26254;DHT22;53339;51.378;0.094;2022-09-29T15:04:43;25.50;42.40
26254;DHT22;53339;51.378;0.094;2022-09-29T15:07:18;25.60;45.00
26254;DHT22;53339;51.378;0.094;2022-09-29T15:09:53;25.90;45.90
26254;DHT22;53339;51.378;0.094;2022-09-29T15:12:31;26.30;44.40
26254;DHT22;53339;51.378;0.094;2022-09-29T15:14:59;26.80;43.40
26254;DHT22;53339;51.378;0.094;2022-09-29T15:26:00;28.60;42.30
26254;DHT22;53339;51.378;0.094;2022-09-29T15:31:03;29.00;42.90
26254;DHT22;53339;51.378;0.094;2022-09-29T15:33:36;29.00;42.20
26254;DHT22;53339;51.378;0.094;2022-09-29T15:36:05;29.10;41.40
26254;DHT22;53339;51.378;0.094;2022-09-29T15:38:36;29.20;41.20
26254;DHT22;53339;51.378;0.094;2022-09-29T15:44:07;29.20;40.20
26254;DHT22;53339;51.378;0.094;2022-09-29T15:46:41;29.10;38.90
26254;DHT22;53339;51.378;0.094;2022-09-29T15:49:18;28.90;40.00
26254;DHT22;53339;51.378;0.094;2022-09-29T15:52:01;28.80;39.10
26254;DHT22;53339;51.378;0.094;2022-09-29T15:54:37;28.50;38.00
26254;DHT22;53339;51.378;0.094;2022-09-29T15:57:06;28.00;39.10
26254;DHT22;53339;51.378;0.094;2022-09-29T16:03:09;26.00;40.50
26254;DHT22;53339;51.378;0.094;2022-09-29T16:05:41;24.70;40.40
26254;DHT22;53339;51.378;0.094;2022-09-29T16:08:22;23.40;42.30
26254;DHT22;53339;51.378;0.094;2022-09-29T16:10:53;22.20;42.70
26254;DHT22;53339;51.378;0.094;2022-09-29T16:13:24;21.30;43.50
26254;DHT22;53339;51.378;0.094;2022-09-29T16:15:59;20.40;43.90
26254;DHT22;53339;51.378;0.094;2022-09-29T16:21:05;18.90;45.10
26254;DHT22;53339;51.378;0.094;2022-09-29T16:23:47;18.30;45.40
26254;DHT22;53339;51.378;0.094;2022-09-29T16:26:32;17.80;45.60
26254;DHT22;53339;51.378;0.094;2022-09-29T16:31:36;17.00;46.80
26254;DHT22;53339;51.378;0.094;2022-09-29T16:37:05;16.40;48.00
26254;DHT22;53339;51.378;0.094;2022-09-29T16:39:43;16.10;48.10
26254;DHT22;53339;51.378;0.094;2022-09-29T16:42:29;15.90;48.40
26254;DHT22;53339;51.378;0.094;2022-09-29T16:44:56;15.70;48.80
26254;DHT22;53339;51.378;0.094;2022-09-29T16:47:27;15.60;49.00
26254;DHT22;53339;51.378;0.094;2022-09-29T16:49:58;15.40;49.40
26254;DHT22;53339;51.378;0.094;2022-09-29T16:52:34;15.30;49.60
26254;DHT22;53339;51.378;0.094;2022-09-29T16:55:17;15.10;49.80
26254;DHT22;53339;51.378;0.094;2022-09-29T16:58:00;15.00;50.00
26254;DHT22;53339;51.378;0.094;2022-09-29T17:00:28;14.90;50.30
26254;DHT22;53339;51.378;0.094;2022-09-29T17:02:56;14.80;50.50
26254;DHT22;53339;51.378;0.094;2022-09-29T17:05:24;14.70;50.90
26254;DHT22;53339;51.378;0.094;2022-09-29T17:07:59;14.60;51.50
26254;DHT22;53339;51.378;0.094;2022-09-29T17:10:28;14.40;52.10
26254;DHT22;53339;51.378;0.094;2022-09-29T17:12:55;14.20;52.60
26254;DHT22;53339;51.378;0.094;2022-09-29T17:15:23;14.10;53.10
26254;DHT22;53339;51.378;0.094;2022-09-29T17:17:51;14.00;53.50
26254;DHT22;53339;51.378;0.094;2022-09-29T17:20:22;13.90;54.00
26254;DHT22;53339;51.378;0.094;2022-09-29T17:22:55;13.70;54.40
26254;DHT22;53339;51.378;0.094;2022-09-29T17:25:25;13.60;54.80
26254;DHT22;53339;51.378;0.094;2022-09-29T17:27:52;13.50;55.30
26254;DHT22;53339;51.378;0.094;2022-09-29T17:30:40;13.40;55.80
26254;DHT22;53339;51.378;0.094;2022-09-29T17:33:10;13.20;56.30
26254;DHT22;53339;51.378;0.094;2022-09-29T17:35:41;13.10;56.80
26254;DHT22;53339;51.378;0.094;2022-09-29T17:38:13;12.90;57.20
26254;DHT22;53339;51.378;0.094;2022-09-29T17:43:19;12.70;58.10
26254;DHT22;53339;51.378;0.094;2022-09-29T17:45:50;12.50;58.60
26254;DHT22;53339;51.378;0.094;2022-09-29T17:48:20;12.40;59.00
26254;DHT22;53339;51.378;0.094;2022-09-29T17:50:49;12.30;59.40
26254;DHT22;53339;51.378;0.094;2022-09-29T17:53:17;12.20;59.70
26254;DHT22;53339;51.378;0.094;2022-09-29T17:55:47;12.20;60.00
26254;DHT22;53339;51.378;0.094;2022-09-29T17:58:18;12.10;60.30
26254;DHT22;53339;51.378;0.094;2022-09-29T18:00:48;12.00;60.50
26254;DHT22;53339;51.378;0.094;2022-09-29T18:03:18;11.90;60.80
26254;DHT22;53339;51.378;0.094;2022-09-29T18:05:47;11.90;61.00
26254;DHT22;53339;51.378;0.094;2022-09-29T18:08:18;11.80;61.20
26254;DHT22;53339;51.378;0.094;2022-09-29T18:10:53;11.70;61.20
26254;DHT22;53339;51.378;0.094;2022-09-29T18:13:23;11.70;61.40
26254;DHT22;53339;51.378;0.094;2022-09-29T18:15:51;11.70;61.70
26254;DHT22;53339;51.378;0.094;2022-09-29T18:18:20;11.70;61.80
26254;DHT22;53339;51.378;0.094;2022-09-29T18:20:48;11.70;62.10
26254;DHT22;53339;51.378;0.094;2022-09-29T18:23:18;11.70;62.40
26254;DHT22;53339;51.378;0.094;2022-09-29T18:25:47;11.60;62.70
26254;DHT22;53339;51.378;0.094;2022-09-29T18:28:17;11.60;62.90
26254;DHT22;53339;51.378;0.094;2022-09-29T18:30:46;11.60;63.00
26254;DHT22;53339;51.378;0.094;2022-09-29T18:33:17;11.60;63.10
26254;DHT22;53339;51.378;0.094;2022-09-29T18:35:50;11.50;63.40
26254;DHT22;53339;51.378;0.094;2022-09-29T18:38:18;11.50;63.60
26254;DHT22;53339;51.378;0.094;2022-09-29T18:40:46;11.40;63.70
26254;DHT22;53339;51.378;0.094;2022-09-29T18:43:14;11.40;64.00
26254;DHT22;53339;51.378;0.094;2022-09-29T18:45:42;11.30;64.30
26254;DHT22;53339;51.378;0.094;2022-09-29T18:48:11;11.30;64.50
26254;DHT22;53339;51.378;0.094;2022-09-29T18:50:47;11.20;64.70
26254;DHT22;53339;51.378;0.094;2022-09-29T18:53:17;11.20;64.90
26254;DHT22;53339;51.378;0.094;2022-09-29T18:55:46;11.10;64.90
26254;DHT22;53339;51.378;0.094;2022-09-29T18:58:17;11.10;65.10
26254;DHT22;53339;51.378;0.094;2022-09-29T19:00:47;11.00;65.20
26254;DHT22;53339;51.378;0.094;2022-09-29T19:03:17;11.00;65.70
26254;DHT22;53339;51.378;0.094;2022-09-29T19:05:46;10.90;65.80
26254;DHT22;53339;51.378;0.094;2022-09-29T19:08:14;10.80;65.90
26254;DHT22;53339;51.378;0.094;2022-09-29T19:10:49;10.80;66.00
26254;DHT22;53339;51.378;0.094;2022-09-29T19:13:17;10.70;66.10